Bookmark and Share
Track history (hours):
 

Sv.knyaz Vladimir

Last reported at 2014-Apr-23 17:26 UTC. Time now 2014-Apr-23 19:06 UTC.
Position N 34°19' E 031°09'.

Length 128 m; draft 3.4 m.

Type: Cargo ship. MMSI: 273350360.

NotesDate/timePositionNaut miles runAvg speedWind from/ knotsBaromVisibWave heightAir tempDewpointWater temp
2014-Apr-23 17:26N 34°19' E 031°09'8 9.6
2014-Apr-23 16:33N 34°15' E 031°18'10 9.8
2014-Apr-23 15:33N 34°12' E 031°29'1010.5
2014-Apr-23 14:33N 34°07' E 031°40'1010.5
2014-Apr-23 13:33N 34°02' E 031°51'1010.2
2014-Apr-23 12:33N 33°57' E 032°02'1010.0
2014-Apr-23 11:33N 33°52' E 032°12'1010.1
2014-Apr-23 10:33N 33°47' E 032°23'10 9.9
2014-Apr-23 09:33N 33°42' E 032°33'10 9.9
2014-Apr-23 08:31N 33°38' E 032°45'10 9.9
2014-Apr-23 07:33N 33°34' E 032°55'1010.2
2014-Apr-23 06:33N 33°29' E 033°06'1010.2
2014-Apr-23 05:33N 33°23' E 033°16'1010.2
2014-Apr-23 04:32N 33°18' E 033°27'1010.2
2014-Apr-23 03:33N 33°14' E 033°38'3110.4
2014-Apr-23 00:33N 33°02' E 034°12'1110.8
2014-Apr-22 23:32N 32°60' E 034°25'1110.8
2014-Apr-22 22:32N 32°58' E 034°37'21 9.8
2014-Apr-22 20:23N 32°51' E 035°01'2 0.2
2014-Apr-22 10:28N 32°49' E 034°60'1 0.0
2014-Apr-20 18:11N 32°50' E 035°00'0 0.0
2014-Apr-20 17:32N 32°50' E 035°00'0 0.0
2014-Apr-20 16:08N 32°50' E 035°00'0 0.0
2014-Apr-20 15:23N 32°50' E 035°00'0 0.0
2014-Apr-20 14:32N 32°50' E 035°00'15 0.4
2014-Apr-18 23:19N 32°54' E 034°44'9 8.7
2014-Apr-18 22:18N 32°56' E 034°33'58 9.6
2014-Apr-18 16:14N 33°11' E 033°26'710.1
2014-Apr-18 15:32N 33°14' E 033°19'10 9.9
2014-Apr-18 14:33N 33°19' E 033°09'10 9.9
2014-Apr-18 13:33N 33°24' E 032°58'10 9.8
2014-Apr-18 12:33N 33°28' E 032°48'10 9.6
2014-Apr-18 11:29N 33°33' E 032°37'9 9.4
2014-Apr-18 10:33N 33°37' E 032°28'9 9.4
2014-Apr-18 09:33N 33°41' E 032°18'18 9.1
2014-Apr-18 07:33N 33°50' E 031°58'58 9.1
2014-Apr-18 01:11N 34°18' E 030°57'285 9.6
2014-Apr-16 19:29N 37°01' E 026°10'10 9.8
2014-Apr-16 18:29N 37°10' E 026°04'9 9.8
2014-Apr-16 17:32N 37°18' E 025°59'10 9.8
2014-Apr-16 16:32N 37°27' E 025°54'19 9.2
2014-Apr-16 14:26N 37°45' E 025°45'261 5.6
2014-Apr-14 15:33N 41°16' E 029°04'  

Dump ship's entire track history

sailing weather and tide predictions

Sv.knyaz Vladimir — UBKI2 — position and weather